Ripon, California
Current Conditions -  °F | °C
As of 10:14 PM on Saturday 22 Nov 2014 (Local Time) from KMOD Reporting Station
Haze Haze  
Wind Chill: 51°   Ceiling: 100
Heat Index: 51°   Visibility: 1mi
Dew Point: 48°   Wind: 8mph
Humidity: 89%   Direction: 300°WNW
Pressure: 30.2"   Gusts: NA
Location:  37.74°N, 121.13°W
Report Text: KMOD 230614Z AUTO 30007KT 1SM BR VV001 11/09 A3020 RMK AO2 T01060089 $
Loading
Personal Weather Stations






























Interactive Weather Map New forecast layout! Learn more

10-Day Weather Forecast

Advertisements
Track Severe Weather on mobile